createdAt,value
2023-03-10T00:00:08.697Z,1.45
2023-03-10T00:02:35.445Z,1.83
2023-03-10T00:05:03.005Z,1.15
2023-03-10T00:07:32.337Z,1.85
2023-03-10T00:09:58.809Z,1.40
2023-03-10T00:12:27.974Z,1.50
2023-03-10T00:14:55.367Z,1.50
2023-03-10T00:17:22.071Z,1.75
2023-03-10T00:19:48.521Z,1.50
2023-03-10T00:22:14.946Z,1.55
2023-03-10T00:24:41.421Z,1.42
2023-03-10T00:27:07.901Z,1.50
2023-03-10T00:29:34.493Z,1.50
2023-03-10T00:32:01.764Z,2.33
2023-03-10T00:34:28.293Z,1.80
2023-03-10T00:36:54.935Z,1.70
2023-03-10T00:39:21.446Z,1.65
2023-03-10T00:41:49.333Z,1.30
2023-03-10T00:44:15.869Z,1.40
2023-03-10T00:46:42.442Z,1.33
2023-03-10T00:49:10.358Z,1.67
2023-03-10T00:51:38.330Z,2.40
2023-03-10T00:54:05.225Z,1.23
2023-03-10T00:56:31.745Z,1.42
2023-03-10T00:58:59.513Z,1.48
2023-03-10T01:01:29.422Z,1.70
2023-03-10T01:03:58.677Z,1.52
2023-03-10T01:06:25.419Z,1.08
2023-03-10T01:08:52.280Z,1.45
2023-03-10T01:11:21.433Z,1.30
2023-03-10T01:13:51.066Z,1.75
2023-03-10T01:16:17.685Z,1.20
2023-03-10T01:18:44.968Z,1.30
2023-03-10T01:21:16.068Z,1.55
2023-03-10T01:23:48.161Z,1.65
2023-03-10T01:26:18.552Z,1.42
2023-03-10T01:28:46.737Z,1.75
2023-03-10T01:31:13.618Z,1.90
2023-03-10T01:33:41.450Z,1.42
2023-03-10T01:36:11.969Z,1.55
2023-03-10T01:38:39.038Z,1.55
2023-03-10T01:41:06.058Z,1.20
2023-03-10T01:43:36.540Z,1.33
2023-03-10T01:46:21.762Z,1.60
2023-03-10T01:48:48.339Z,1.05
2023-03-10T01:51:14.909Z,1.35
2023-03-10T01:53:41.526Z,1.13
2023-03-10T01:56:08.139Z,1.40
2023-03-10T01:58:38.957Z,1.30
2023-03-10T02:01:06.116Z,1.13
2023-03-10T02:03:37.330Z,1.25
2023-03-10T02:06:06.148Z,1.50
2023-03-10T02:08:38.702Z,1.08
2023-03-10T02:11:05.378Z,1.25
2023-03-10T02:13:32.017Z,1.27
2023-03-10T02:15:58.827Z,1.27
2023-03-10T02:18:25.746Z,1.70
2023-03-10T02:20:59.703Z,1.20
2023-03-10T02:23:51.260Z,1.27
2023-03-10T02:26:25.413Z,1.10
2023-03-10T02:28:54.145Z,1.40
2023-03-10T02:31:22.187Z,1.10
2023-03-10T02:33:49.923Z,1.02
2023-03-10T02:36:18.440Z,1.10
2023-03-10T02:38:45.319Z,1.10
2023-03-10T02:41:28.013Z,1.30
2023-03-10T02:43:56.166Z,1.00
2023-03-10T02:46:26.242Z,1.13
2023-03-10T02:48:52.788Z,0.90
2023-03-10T02:51:27.307Z,1.23
2023-03-10T02:53:55.286Z,1.15
2023-03-10T02:56:23.459Z,1.15
2023-03-10T02:58:50.181Z,1.40
2023-03-10T03:01:16.831Z,0.88
2023-03-10T03:03:43.469Z,1.10
2023-03-10T03:06:11.493Z,1.10
2023-03-10T03:08:38.131Z,1.08
2023-03-10T03:11:07.441Z,1.33
2023-03-10T03:13:34.320Z,1.05
2023-03-10T03:16:01.511Z,1.15
2023-03-10T03:18:28.074Z,1.02
2023-03-10T03:20:54.713Z,0.73
2023-03-10T03:23:22.650Z,1.45
2023-03-10T03:25:50.383Z,1.25
2023-03-10T03:28:18.804Z,1.45
2023-03-10T03:30:46.686Z,0.75
2023-03-10T03:33:15.706Z,1.27
2023-03-10T03:35:43.759Z,1.10
2023-03-10T03:38:10.292Z,1.08
2023-03-10T03:40:37.443Z,0.70
2023-03-10T03:43:05.393Z,0.60
2023-03-10T03:45:33.721Z,0.98
2023-03-10T03:48:01.344Z,0.90
2023-03-10T03:50:30.685Z,1.00
2023-03-10T03:53:03.840Z,0.70
2023-03-10T03:55:30.843Z,0.85
2023-03-10T03:57:58.138Z,0.70
2023-03-10T04:00:27.384Z,1.10
2023-03-10T04:03:04.162Z,0.80
2023-03-10T04:05:32.454Z,0.98
2023-03-10T04:07:59.102Z,0.90
2023-03-10T04:10:29.121Z,0.90
2023-03-10T04:12:55.987Z,1.00
2023-03-10T04:15:23.874Z,0.75
2023-03-10T04:17:50.759Z,0.93
2023-03-10T04:20:18.093Z,1.00
2023-03-10T04:22:47.742Z,0.60
2023-03-10T04:25:14.646Z,1.05
2023-03-10T04:27:41.178Z,0.75
2023-03-10T04:30:08.594Z,1.00
2023-03-10T04:32:38.127Z,0.90
2023-03-10T04:35:05.560Z,0.60
2023-03-10T04:37:33.261Z,0.63
2023-03-10T04:40:01.559Z,0.75
2023-03-10T04:42:31.149Z,0.80
2023-03-10T04:44:57.839Z,0.88
2023-03-10T04:47:24.706Z,0.80
2023-03-10T04:49:51.192Z,0.73
2023-03-10T04:52:17.733Z,0.60
2023-03-10T04:54:44.475Z,0.65
2023-03-10T04:57:10.987Z,0.70
2023-03-10T04:59:37.899Z,0.68
2023-03-10T05:02:04.450Z,0.73
2023-03-10T05:04:31.274Z,0.63
2023-03-10T05:06:57.960Z,0.60
2023-03-10T05:09:31.417Z,0.80
2023-03-10T05:11:57.986Z,0.90
2023-03-10T05:14:25.939Z,0.82
2023-03-10T05:16:52.714Z,0.80
2023-03-10T05:19:19.288Z,0.63
2023-03-10T05:21:46.178Z,0.43
2023-03-10T05:24:12.639Z,0.70
2023-03-10T05:26:39.208Z,0.63
2023-03-10T05:29:05.806Z,0.63
2023-03-10T05:31:47.254Z,0.52
2023-03-10T05:34:20.165Z,0.70
2023-03-10T05:36:48.592Z,0.90
2023-03-10T05:39:16.222Z,0.77
2023-03-10T05:41:46.423Z,0.70
2023-03-10T05:44:13.059Z,0.55
2023-03-10T05:46:40.211Z,0.70
2023-03-10T05:49:07.580Z,0.50
2023-03-10T05:51:34.532Z,0.60
2023-03-10T05:54:06.225Z,0.52
2023-03-10T05:56:33.258Z,0.57
2023-03-10T05:59:01.739Z,0.52
2023-03-10T06:01:31.187Z,0.43
2023-03-10T06:03:57.796Z,0.60
2023-03-10T06:06:24.410Z,0.50
2023-03-10T06:08:50.900Z,0.40
2023-03-10T06:11:18.425Z,0.40
2023-03-10T06:13:44.900Z,0.50
2023-03-10T06:16:11.983Z,0.40
2023-03-10T06:18:38.622Z,0.60
2023-03-10T06:21:08.960Z,0.60
2023-03-10T06:23:35.641Z,0.63
2023-03-10T06:26:03.452Z,0.60
2023-03-10T06:28:33.353Z,0.68
2023-03-10T06:31:01.591Z,0.40
2023-03-10T06:33:28.303Z,0.50
2023-03-10T06:35:54.846Z,0.50
2023-03-10T06:38:21.541Z,0.80
2023-03-10T06:40:47.999Z,0.65
2023-03-10T06:43:14.898Z,0.47
2023-03-10T06:45:45.208Z,0.40
2023-03-10T06:48:12.276Z,0.60
2023-03-10T06:50:44.174Z,0.63
2023-03-10T06:53:10.881Z,1.05
2023-03-10T06:55:37.721Z,0.90
2023-03-10T06:58:04.249Z,0.50
2023-03-10T07:00:30.785Z,0.40
2023-03-10T07:02:57.318Z,0.50
2023-03-10T07:05:24.680Z,0.60
2023-03-10T07:07:51.135Z,0.50
2023-03-10T07:10:17.816Z,0.60
2023-03-10T07:12:44.491Z,0.60
2023-03-10T07:15:11.183Z,0.50
2023-03-10T07:17:37.661Z,0.50
2023-03-10T07:20:04.985Z,0.57
2023-03-10T07:22:31.962Z,0.63
2023-03-10T07:24:58.422Z,0.85
2023-03-10T07:27:24.903Z,0.60
2023-03-10T07:29:51.326Z,0.70
2023-03-10T07:32:17.807Z,0.50
2023-03-10T07:34:44.720Z,0.68
2023-03-10T07:37:11.135Z,0.55
2023-03-10T07:39:37.958Z,0.77
2023-03-10T07:42:04.502Z,0.55
2023-03-10T07:44:32.505Z,0.70
2023-03-10T07:46:59.053Z,0.70
2023-03-10T07:49:25.512Z,0.60
2023-03-10T07:51:52.032Z,1.00
2023-03-10T07:54:18.644Z,0.70
2023-03-10T07:56:45.138Z,0.60
2023-03-10T07:59:11.537Z,0.60
2023-03-10T08:01:39.125Z,0.80
2023-03-10T08:04:06.342Z,0.85
2023-03-10T08:06:35.608Z,0.70
2023-03-10T08:09:03.162Z,0.80
2023-03-10T08:11:30.026Z,0.68
2023-03-10T08:13:56.536Z,0.90
2023-03-10T08:16:23.854Z,1.23
2023-03-10T08:18:54.673Z,0.88
2023-03-10T08:21:21.598Z,0.65
2023-03-10T08:23:48.187Z,1.05
2023-03-10T08:26:16.190Z,0.70
2023-03-10T08:28:43.069Z,0.73
2023-03-10T08:31:14.273Z,1.02
2023-03-10T08:33:41.491Z,0.95
2023-03-10T08:36:21.328Z,0.90
2023-03-10T08:38:49.069Z,0.80
2023-03-10T08:41:20.285Z,0.50
2023-03-10T08:43:49.291Z,0.80
2023-03-10T08:46:17.191Z,0.60
2023-03-10T08:48:44.100Z,0.70
2023-03-10T08:51:12.542Z,0.63
2023-03-10T08:53:40.262Z,0.90
2023-03-10T08:56:07.447Z,0.80
2023-03-10T08:58:34.072Z,0.60
2023-03-10T09:01:00.894Z,0.73
2023-03-10T09:03:29.511Z,0.80
2023-03-10T09:05:57.774Z,0.70
2023-03-10T09:08:27.299Z,0.60
2023-03-10T09:10:54.213Z,1.02
2023-03-10T09:13:20.886Z,0.68
2023-03-10T09:15:47.566Z,0.88
2023-03-10T09:18:15.593Z,0.80
2023-03-10T09:20:42.193Z,0.80
2023-03-10T09:23:09.275Z,1.33
2023-03-10T09:25:36.069Z,0.75
2023-03-10T09:28:02.652Z,0.70
2023-03-10T09:30:29.048Z,0.73
2023-03-10T09:32:55.832Z,0.60
2023-03-10T09:35:22.459Z,0.70
2023-03-10T09:37:49.435Z,0.60
2023-03-10T09:40:18.367Z,0.45
2023-03-10T09:42:44.808Z,0.52
2023-03-10T09:45:23.304Z,0.90
2023-03-10T09:47:57.561Z,0.82
2023-03-10T09:50:30.050Z,1.10
2023-03-10T09:52:56.505Z,0.80
2023-03-10T09:55:25.480Z,0.70
2023-03-10T09:57:56.787Z,0.80
2023-03-10T10:00:34.224Z,0.80
2023-03-10T10:03:08.958Z,0.80
2023-03-10T10:05:37.173Z,0.60
2023-03-10T10:08:06.228Z,0.90
2023-03-10T10:10:36.539Z,0.90
2023-03-10T10:13:11.667Z,0.90
2023-03-10T10:15:40.267Z,0.82
2023-03-10T10:18:24.985Z,1.00
2023-03-10T10:20:59.181Z,0.85
2023-03-10T10:23:25.832Z,0.70
2023-03-10T10:25:52.356Z,1.02
2023-03-10T10:28:20.962Z,0.65
2023-03-10T10:30:47.608Z,0.60
2023-03-10T10:33:15.062Z,0.85
2023-03-10T10:35:42.905Z,0.88
2023-03-10T10:38:09.613Z,1.25
2023-03-10T10:40:45.960Z,0.80
2023-03-10T10:43:16.632Z,0.90
2023-03-10T10:45:43.437Z,0.73
2023-03-10T10:48:30.482Z,0.90
2023-03-10T10:50:57.049Z,0.70
2023-03-10T10:53:24.282Z,0.80
2023-03-10T10:56:00.111Z,1.00
2023-03-10T10:58:28.959Z,1.38
2023-03-10T11:00:58.587Z,0.95
2023-03-10T11:03:25.288Z,1.05
2023-03-10T11:05:51.728Z,1.08
2023-03-10T11:08:19.655Z,0.90
2023-03-10T11:10:50.429Z,0.90
2023-03-10T11:13:19.926Z,0.77
2023-03-10T11:15:52.248Z,1.33
2023-03-10T11:18:31.391Z,1.17
2023-03-10T11:21:01.271Z,1.05
2023-03-10T11:23:46.471Z,0.90
2023-03-10T11:26:31.850Z,0.83
2023-03-10T11:29:01.499Z,0.90
2023-03-10T11:31:44.658Z,1.00
2023-03-10T11:34:11.123Z,1.05
2023-03-10T11:36:56.273Z,1.10
2023-03-10T11:39:35.901Z,1.10
2023-03-10T11:42:10.929Z,0.90
2023-03-10T11:44:43.374Z,0.88
2023-03-10T11:47:15.836Z,0.98
2023-03-10T11:49:45.729Z,0.80
2023-03-10T11:52:22.441Z,0.90
2023-03-10T11:54:51.111Z,1.45
2023-03-10T11:57:19.301Z,0.75
2023-03-10T12:00:00.180Z,1.20
2023-03-10T12:02:30.024Z,1.00
2023-03-10T12:05:09.620Z,0.95
2023-03-10T12:07:38.512Z,1.00
2023-03-10T12:10:11.222Z,0.80
2023-03-10T12:12:39.142Z,0.65
2023-03-10T12:15:18.444Z,1.10
2023-03-10T12:17:45.790Z,0.98
2023-03-10T12:20:16.072Z,0.70
2023-03-10T12:22:47.968Z,1.10
2023-03-10T12:25:35.538Z,0.93
2023-03-10T12:28:17.304Z,1.05
2023-03-10T12:30:43.941Z,0.73
2023-03-10T12:33:29.451Z,0.70
2023-03-10T12:36:04.753Z,1.00
2023-03-10T12:38:54.850Z,0.82
2023-03-10T12:41:27.507Z,1.15
2023-03-10T12:43:54.086Z,0.80
2023-03-10T12:46:39.484Z,1.23
2023-03-10T12:49:17.948Z,1.10
2023-03-10T12:51:47.804Z,0.93
2023-03-10T12:54:32.362Z,0.70
2023-03-10T12:57:09.602Z,0.90
2023-03-10T13:00:11.968Z,0.75
2023-03-10T13:02:57.141Z,0.70
2023-03-10T13:05:29.492Z,1.02
2023-03-10T13:07:58.207Z,0.80
2023-03-10T13:10:26.187Z,0.60
2023-03-10T13:12:59.721Z,0.90
2023-03-10T13:15:31.106Z,0.60
2023-03-10T13:18:15.806Z,0.55
2023-03-10T13:20:42.351Z,0.30
2023-03-10T13:23:34.860Z,0.30
2023-03-10T13:26:03.604Z,0.30
2023-03-10T13:28:31.274Z,0.25
2023-03-10T13:31:09.992Z,0.30
2023-03-10T13:33:50.313Z,0.45
2023-03-10T13:36:23.695Z,0.47
2023-03-10T13:38:50.526Z,0.70
2023-03-10T13:41:16.995Z,0.38
2023-03-10T13:43:45.243Z,0.50
2023-03-10T13:46:14.892Z,0.50
2023-03-10T13:48:42.394Z,0.50
2023-03-10T13:51:18.189Z,0.35
2023-03-10T13:53:46.312Z,0.45
2023-03-10T13:56:21.135Z,0.40
2023-03-10T13:58:48.776Z,0.52
2023-03-10T14:01:17.256Z,0.40
2023-03-10T14:04:00.729Z,1.80
2023-03-10T14:06:28.536Z,0.40
2023-03-10T14:08:57.505Z,0.30
2023-03-10T14:11:30.466Z,0.50
2023-03-10T14:13:57.027Z,0.30
2023-03-10T14:16:43.468Z,0.50
2023-03-10T14:19:10.533Z,0.22
2023-03-10T14:21:39.347Z,0.50
2023-03-10T14:24:15.218Z,0.50
2023-03-10T14:26:42.401Z,0.50
2023-03-10T14:29:16.927Z,0.60
2023-03-10T14:31:43.909Z,0.70
2023-03-10T14:34:12.477Z,0.43
2023-03-10T14:36:39.245Z,0.40
2023-03-10T14:39:07.004Z,0.30
2023-03-10T14:41:35.035Z,0.82
2023-03-10T14:44:01.870Z,0.60
2023-03-10T14:46:29.166Z,0.55
2023-03-10T14:48:56.045Z,0.50
2023-03-10T14:51:35.084Z,0.43
2023-03-10T14:54:03.138Z,0.55
2023-03-10T14:56:30.119Z,0.60
2023-03-10T14:58:58.297Z,1.02
2023-03-10T15:01:24.878Z,0.60
2023-03-10T15:03:51.612Z,0.60
2023-03-10T15:06:19.168Z,0.73
2023-03-10T15:08:45.682Z,0.50
2023-03-10T15:11:12.459Z,0.60
2023-03-10T15:13:39.117Z,0.73
2023-03-10T15:16:06.303Z,0.50
2023-03-10T15:18:32.786Z,0.50
2023-03-10T15:21:00.526Z,0.50
2023-03-10T15:23:27.759Z,0.40
2023-03-10T15:25:55.241Z,0.40
2023-03-10T15:28:21.788Z,0.32
2023-03-10T15:30:49.922Z,0.57
2023-03-10T15:33:16.405Z,0.50
2023-03-10T15:35:43.475Z,0.28
2023-03-10T15:38:12.516Z,0.40
2023-03-10T15:40:39.436Z,0.50
2023-03-10T15:43:05.980Z,0.50
2023-03-10T15:45:32.970Z,0.32
2023-03-10T15:47:59.626Z,0.28
2023-03-10T15:50:26.620Z,0.50
2023-03-10T15:52:54.233Z,0.60
2023-03-10T15:55:21.010Z,0.47
2023-03-10T15:57:50.673Z,0.40
2023-03-10T16:00:20.613Z,0.40
2023-03-10T16:02:48.182Z,0.40
2023-03-10T16:05:15.180Z,0.40
2023-03-10T16:07:41.759Z,0.30
2023-03-10T16:10:11.935Z,0.40
2023-03-10T16:12:38.481Z,0.30
2023-03-10T16:15:05.198Z,0.60
2023-03-10T16:17:31.747Z,0.40
2023-03-10T16:20:02.034Z,0.38
2023-03-10T16:22:28.634Z,0.40
2023-03-10T16:24:55.096Z,0.30
2023-03-10T16:27:21.626Z,0.25
2023-03-10T16:29:48.532Z,0.32
2023-03-10T16:32:15.342Z,0.40
2023-03-10T16:34:42.122Z,0.20
2023-03-10T16:37:09.047Z,0.40
2023-03-10T16:39:36.500Z,0.28
2023-03-10T16:42:03.260Z,0.20
2023-03-10T16:44:29.781Z,0.20
2023-03-10T16:46:56.281Z,0.30
2023-03-10T16:49:22.793Z,0.30
2023-03-10T16:51:49.351Z,0.30
2023-03-10T16:54:17.117Z,0.30
2023-03-10T16:56:47.792Z,0.22
2023-03-10T16:59:18.158Z,0.30
2023-03-10T17:01:45.061Z,0.30
2023-03-10T17:04:11.751Z,0.30
2023-03-10T17:06:38.445Z,0.22
2023-03-10T17:09:06.024Z,0.47
2023-03-10T17:11:38.267Z,0.50
2023-03-10T17:14:06.054Z,0.30
2023-03-10T17:16:33.228Z,0.38
2023-03-10T17:19:01.452Z,0.40
2023-03-10T17:21:29.682Z,0.30
2023-03-10T17:23:56.311Z,0.50
2023-03-10T17:26:23.038Z,0.40
2023-03-10T17:28:50.299Z,0.43
2023-03-10T17:31:23.587Z,0.50
2023-03-10T17:33:50.464Z,0.50
2023-03-10T17:36:17.463Z,0.50
2023-03-10T17:38:44.473Z,0.40
2023-03-10T17:41:15.216Z,0.40
2023-03-10T17:43:42.162Z,0.60
2023-03-10T17:46:10.942Z,0.60
2023-03-10T17:48:37.619Z,0.45
2023-03-10T17:51:04.266Z,0.50
2023-03-10T17:53:31.189Z,0.32
2023-03-10T17:55:58.046Z,0.70
2023-03-10T17:58:26.462Z,0.50
2023-03-10T18:00:52.983Z,0.50
2023-03-10T18:03:20.623Z,0.55
2023-03-10T18:05:47.519Z,0.82
2023-03-10T18:08:14.385Z,0.60
2023-03-10T18:10:41.024Z,0.80
2023-03-10T18:13:09.354Z,0.70
2023-03-10T18:15:35.996Z,0.60
2023-03-10T18:18:02.676Z,0.70
2023-03-10T18:20:29.417Z,0.50
2023-03-10T18:22:55.902Z,0.60
2023-03-10T18:25:22.278Z,0.43
2023-03-10T18:27:49.066Z,0.50
2023-03-10T18:30:16.111Z,0.40
2023-03-10T18:32:43.210Z,0.60
2023-03-10T18:35:10.954Z,0.47
2023-03-10T18:37:40.275Z,0.50
2023-03-10T18:40:09.080Z,0.50
2023-03-10T18:42:35.620Z,0.50
2023-03-10T18:45:02.204Z,0.70
2023-03-10T18:47:28.912Z,0.50
2023-03-10T18:49:55.344Z,0.50
2023-03-10T18:52:21.967Z,0.60
2023-03-10T18:54:48.834Z,0.63
2023-03-10T18:57:15.716Z,0.60
2023-03-10T18:59:42.359Z,0.70
2023-03-10T19:02:15.408Z,0.50
2023-03-10T19:04:42.167Z,0.40
2023-03-10T19:07:08.667Z,0.60
2023-03-10T19:09:35.653Z,0.85
2023-03-10T19:12:02.212Z,0.57
2023-03-10T19:14:28.696Z,0.60
2023-03-10T19:16:55.312Z,0.40
2023-03-10T19:19:21.847Z,0.50
2023-03-10T19:21:48.614Z,0.50
2023-03-10T19:24:18.143Z,0.40
2023-03-10T19:26:44.973Z,0.68
2023-03-10T19:29:11.440Z,0.60
2023-03-10T19:31:38.072Z,0.68
2023-03-10T19:34:04.573Z,0.50
2023-03-10T19:36:31.087Z,0.50
2023-03-10T19:38:58.027Z,0.55
2023-03-10T19:41:24.555Z,0.60
2023-03-10T19:43:51.378Z,0.40
2023-03-10T19:46:18.544Z,0.20
2023-03-10T19:48:45.557Z,0.30
2023-03-10T19:51:29.343Z,0.38
2023-03-10T19:53:56.976Z,0.20
2023-03-10T19:56:25.402Z,0.30
2023-03-10T19:58:54.948Z,0.20
2023-03-10T20:01:24.395Z,0.25
2023-03-10T20:03:51.843Z,0.30
2023-03-10T20:06:18.553Z,0.30
2023-03-10T20:08:45.025Z,0.40
2023-03-10T20:11:14.568Z,0.40
2023-03-10T20:13:42.182Z,0.43
2023-03-10T20:16:14.321Z,0.30
2023-03-10T20:18:41.108Z,0.38
2023-03-10T20:21:07.844Z,0.40
2023-03-10T20:23:34.693Z,0.65
2023-03-10T20:26:01.809Z,0.30
2023-03-10T20:28:28.305Z,0.45
2023-03-10T20:30:54.784Z,0.55
2023-03-10T20:33:21.529Z,0.70
2023-03-10T20:35:48.069Z,0.70
2023-03-10T20:38:14.540Z,0.60
2023-03-10T20:40:41.286Z,1.00
2023-03-10T20:43:10.530Z,1.00
2023-03-10T20:45:37.154Z,0.90
2023-03-10T20:48:03.817Z,0.95
2023-03-10T20:50:30.942Z,1.27
2023-03-10T20:52:57.543Z,1.05
2023-03-10T20:55:25.389Z,1.00
2023-03-10T20:57:53.037Z,1.20
2023-03-10T21:00:21.207Z,1.30
2023-03-10T21:02:48.937Z,1.33
2023-03-10T21:05:18.520Z,0.90
2023-03-10T21:07:45.342Z,1.10
2023-03-10T21:10:13.190Z,1.40
2023-03-10T21:12:40.298Z,1.30
2023-03-10T21:15:11.237Z,1.15
2023-03-10T21:17:37.694Z,1.00
2023-03-10T21:20:08.245Z,1.00
2023-03-10T21:22:35.484Z,1.10
2023-03-10T21:25:03.697Z,1.20
2023-03-10T21:27:30.942Z,1.05
2023-03-10T21:29:58.913Z,1.00
2023-03-10T21:32:26.895Z,1.00
2023-03-10T21:34:53.606Z,0.80
2023-03-10T21:37:20.588Z,1.13
2023-03-10T21:39:48.097Z,1.05
2023-03-10T21:42:14.764Z,0.90
2023-03-10T21:44:41.346Z,1.33
2023-03-10T21:47:07.767Z,0.90
2023-03-10T21:49:34.394Z,1.30
2023-03-10T21:52:00.816Z,1.00
2023-03-10T21:54:27.454Z,1.00
2023-03-10T21:56:54.609Z,1.10
2023-03-10T21:59:21.082Z,1.05
2023-03-10T22:01:50.529Z,1.20
2023-03-10T22:04:17.466Z,1.42
2023-03-10T22:06:43.940Z,1.23
2023-03-10T22:09:10.408Z,1.10
2023-03-10T22:11:37.533Z,1.35
2023-03-10T22:14:03.962Z,1.40
2023-03-10T22:16:30.886Z,1.63
2023-03-10T22:18:57.474Z,1.65
2023-03-10T22:21:23.876Z,1.70
2023-03-10T22:23:50.395Z,1.65
2023-03-10T22:26:17.271Z,1.80
2023-03-10T22:28:43.691Z,1.60
2023-03-10T22:31:10.757Z,1.75
2023-03-10T22:33:37.268Z,1.67
2023-03-10T22:36:07.948Z,2.03
2023-03-10T22:38:36.278Z,2.28
2023-03-10T22:41:03.275Z,1.77
2023-03-10T22:43:29.774Z,1.50
2023-03-10T22:45:59.231Z,1.63
2023-03-10T22:48:25.704Z,1.00
2023-03-10T22:50:52.213Z,0.43
2023-03-10T22:53:21.017Z,0.60
2023-03-10T22:55:48.398Z,0.50
2023-03-10T22:58:16.328Z,0.50
2023-03-10T23:00:42.874Z,0.70
2023-03-10T23:03:11.652Z,0.40
2023-03-10T23:05:38.471Z,0.50
2023-03-10T23:08:05.666Z,0.40
2023-03-10T23:10:33.062Z,0.52
2023-03-10T23:13:01.026Z,0.60
2023-03-10T23:15:29.474Z,0.63
2023-03-10T23:17:56.558Z,0.60
2023-03-10T23:20:27.203Z,0.82
2023-03-10T23:22:54.740Z,0.70
2023-03-10T23:25:22.799Z,1.10
2023-03-10T23:27:49.270Z,0.77
2023-03-10T23:30:16.186Z,1.33
2023-03-10T23:32:46.665Z,1.35
2023-03-10T23:35:18.783Z,1.20
2023-03-10T23:37:45.307Z,1.58
2023-03-10T23:40:14.115Z,1.65
2023-03-10T23:42:42.173Z,1.80
2023-03-10T23:45:11.460Z,1.55
2023-03-10T23:47:38.690Z,1.95
2023-03-10T23:50:06.910Z,1.95
2023-03-10T23:52:35.595Z,1.88
2023-03-10T23:55:02.050Z,2.10
2023-03-10T23:57:28.636Z,2.55
2023-03-10T23:59:55.154Z,2.30
